createdAt,value
2022-12-19T00:00:13.585Z,21.25
2022-12-19T00:04:22.229Z,18.88
2022-12-19T00:08:34.306Z,18.38
2022-12-19T00:12:40.329Z,21.08
2022-12-19T00:16:52.172Z,20.70
2022-12-19T00:21:01.356Z,19.50
2022-12-19T00:25:05.882Z,20.00
2022-12-19T00:29:14.615Z,19.42
2022-12-19T00:33:20.243Z,21.42
2022-12-19T00:37:24.168Z,20.50
2022-12-19T00:41:29.668Z,19.73
2022-12-19T00:45:33.594Z,19.15
2022-12-19T00:49:39.451Z,18.85
2022-12-19T00:53:50.246Z,21.17
2022-12-19T00:57:58.243Z,21.90
2022-12-19T01:02:06.158Z,21.48
2022-12-19T01:06:19.955Z,20.45
2022-12-19T01:10:27.618Z,22.38
2022-12-19T01:14:30.418Z,20.02
2022-12-19T01:18:34.400Z,21.90
2022-12-19T01:22:43.326Z,22.88
2022-12-19T01:26:47.233Z,21.60
2022-12-19T01:30:51.400Z,23.35
2022-12-19T01:34:55.964Z,22.05
2022-12-19T01:39:01.163Z,22.40
2022-12-19T01:43:05.174Z,19.73
2022-12-19T01:47:17.134Z,19.92
2022-12-19T01:51:22.908Z,18.88
2022-12-19T01:55:29.412Z,22.02
2022-12-19T01:59:35.239Z,21.85
2022-12-19T02:03:41.017Z,22.52
2022-12-19T02:07:45.417Z,21.35
2022-12-19T02:11:50.683Z,23.48
2022-12-19T02:15:58.689Z,25.17
2022-12-19T02:20:32.585Z,21.05
2022-12-19T02:24:56.425Z,21.77
2022-12-19T02:29:20.114Z,22.65
2022-12-19T02:33:33.280Z,20.02
2022-12-19T02:37:39.838Z,19.02
2022-12-19T02:41:46.756Z,21.85
2022-12-19T02:45:50.856Z,20.73
2022-12-19T02:49:56.399Z,22.02
2022-12-19T02:54:00.400Z,19.00
2022-12-19T02:58:34.813Z,19.17
2022-12-19T03:02:45.896Z,19.80
2022-12-19T03:07:05.974Z,19.35
2022-12-19T03:11:19.474Z,18.70
2022-12-19T03:15:24.288Z,19.70
2022-12-19T03:19:28.828Z,18.42
2022-12-19T03:27:47.874Z,21.20
2022-12-19T03:32:02.285Z,20.27
2022-12-19T03:36:11.518Z,21.75
2022-12-19T03:40:19.330Z,19.00
2022-12-19T03:44:31.713Z,20.17
2022-12-19T03:48:41.259Z,21.05
2022-12-19T03:52:50.086Z,18.63
2022-12-19T03:56:59.788Z,18.88
2022-12-19T04:01:04.328Z,20.65
2022-12-19T04:09:22.463Z,24.98
2022-12-19T04:13:34.646Z,21.40
2022-12-19T04:17:42.052Z,22.00
2022-12-19T04:21:51.247Z,23.17
2022-12-19T04:25:58.864Z,21.27
2022-12-19T04:30:05.337Z,19.52
2022-12-19T04:34:10.352Z,22.67
2022-12-19T04:38:13.870Z,23.95
2022-12-19T04:42:21.535Z,23.33
2022-12-19T04:46:27.167Z,24.42
2022-12-19T04:50:31.191Z,18.27
2022-12-19T04:54:35.935Z,25.00
2022-12-19T04:58:39.764Z,28.65
2022-12-19T05:02:46.283Z,34.67
2022-12-19T05:06:53.229Z,26.55
2022-12-19T05:11:01.741Z,31.17
2022-12-19T05:15:06.953Z,39.63
2022-12-19T05:19:16.029Z,30.58
2022-12-19T05:23:24.439Z,38.90
2022-12-19T05:27:29.337Z,48.92
2022-12-19T05:31:47.938Z,45.83
2022-12-19T05:36:00.220Z,34.92
2022-12-19T05:40:04.491Z,35.20
2022-12-19T05:44:11.708Z,29.55
2022-12-19T05:48:24.828Z,42.15
2022-12-19T05:52:30.195Z,35.72
2022-12-19T05:56:34.373Z,33.40
2022-12-19T06:00:51.023Z,36.92
2022-12-19T06:05:19.922Z,51.22
2022-12-19T06:09:25.779Z,36.70
2022-12-19T06:13:36.001Z,41.85
2022-12-19T06:17:40.765Z,48.85
2022-12-19T06:21:48.472Z,50.53
2022-12-19T06:25:54.541Z,52.83
2022-12-19T06:29:59.043Z,54.47
2022-12-19T06:34:05.232Z,33.88
2022-12-19T06:38:10.091Z,46.30
2022-12-19T06:42:27.326Z,44.65
2022-12-19T06:46:32.327Z,32.00
2022-12-19T06:50:37.647Z,27.65
2022-12-19T06:54:48.755Z,35.50
2022-12-19T06:58:56.106Z,28.35
2022-12-19T07:03:02.192Z,27.45
2022-12-19T07:07:15.864Z,36.03
2022-12-19T07:11:26.508Z,25.42
2022-12-19T07:15:33.238Z,25.38
2022-12-19T07:19:49.321Z,31.20
2022-12-19T07:23:59.095Z,26.60
2022-12-19T07:28:10.712Z,33.92
2022-12-19T07:32:19.843Z,26.50
2022-12-19T07:36:37.580Z,29.52
2022-12-19T07:40:41.785Z,27.33
2022-12-19T07:44:50.055Z,27.55
2022-12-19T07:48:56.146Z,27.50
2022-12-19T07:53:05.416Z,34.65
2022-12-19T07:57:10.108Z,34.78
2022-12-19T08:01:20.883Z,27.52
2022-12-19T08:05:28.751Z,27.45
2022-12-19T08:09:33.201Z,24.20
2022-12-19T08:13:46.179Z,36.88
2022-12-19T08:17:58.662Z,51.45
2022-12-19T08:22:17.312Z,42.15
2022-12-19T08:26:29.127Z,29.08
2022-12-19T08:30:40.740Z,46.42
2022-12-19T08:34:45.638Z,44.72
2022-12-19T08:38:54.175Z,44.60
2022-12-19T08:43:03.279Z,45.50
2022-12-19T08:47:08.187Z,31.13
2022-12-19T08:51:18.569Z,40.03
2022-12-19T08:55:26.153Z,57.63
2022-12-19T08:59:46.635Z,41.30
2022-12-19T09:05:04.763Z,49.45
2022-12-19T09:08:15.396Z,36.25
2022-12-19T09:12:31.546Z,31.88
2022-12-19T09:16:43.066Z,43.05
2022-12-19T09:21:09.939Z,37.63
2022-12-19T09:25:24.717Z,33.38
2022-12-19T09:29:35.360Z,41.38
2022-12-19T09:33:45.227Z,35.65
2022-12-19T09:37:52.720Z,40.40
2022-12-19T09:42:28.843Z,50.05
2022-12-19T09:46:43.251Z,37.42
2022-12-19T09:51:09.775Z,34.60
2022-12-19T09:55:22.637Z,31.92
2022-12-19T09:59:41.285Z,31.35
2022-12-19T10:03:50.926Z,29.17
2022-12-19T10:08:08.855Z,39.53
2022-12-19T10:12:42.764Z,41.28
2022-12-19T10:17:23.215Z,38.05
2022-12-19T10:22:15.890Z,30.80
2022-12-19T10:26:13.410Z,27.77
2022-12-19T10:30:19.548Z,30.80
2022-12-19T10:34:30.698Z,34.25
2022-12-19T10:38:47.378Z,40.30
2022-12-19T10:43:10.725Z,32.17
2022-12-19T10:47:22.773Z,29.88
2022-12-19T10:51:36.153Z,31.45
2022-12-19T10:55:53.613Z,38.95
2022-12-19T11:00:01.141Z,32.63
2022-12-19T11:04:26.286Z,33.40
2022-12-19T11:08:31.933Z,35.58
2022-12-19T11:17:38.682Z,33.50
2022-12-19T11:24:11.841Z,32.13
2022-12-19T11:29:32.817Z,27.55
2022-12-19T11:29:37.841Z,26.20
2022-12-19T11:34:51.347Z,35.75
2022-12-19T11:38:55.742Z,30.65
2022-12-19T11:47:33.433Z,27.92
2022-12-19T11:51:43.171Z,28.23
2022-12-19T11:55:49.381Z,30.67
2022-12-19T11:59:53.606Z,42.00
2022-12-19T12:04:10.446Z,32.53
2022-12-19T12:12:06.330Z,31.50
2022-12-19T12:22:18.917Z,28.92
2022-12-19T12:31:01.919Z,30.95
2022-12-19T12:31:25.830Z,27.73
2022-12-19T12:31:54.114Z,27.13
2022-12-19T12:40:47.467Z,35.58
2022-12-19T12:44:52.248Z,28.23
2022-12-19T12:48:57.512Z,27.73
2022-12-19T12:53:03.762Z,25.38
2022-12-19T12:57:08.323Z,24.77
2022-12-19T13:01:13.887Z,26.30
2022-12-19T13:05:27.463Z,27.13
2022-12-19T13:09:31.470Z,24.40
2022-12-19T13:13:58.291Z,24.75
2022-12-19T13:18:29.723Z,21.75
2022-12-19T13:22:42.243Z,24.73
2022-12-19T13:26:50.216Z,22.40
2022-12-19T13:37:46.601Z,29.30
2022-12-19T13:40:12.268Z,23.05
2022-12-19T13:44:20.704Z,27.98
2022-12-19T13:48:32.767Z,27.77
2022-12-19T13:52:38.106Z,25.00
2022-12-19T13:56:42.282Z,23.75
2022-12-19T14:04:57.052Z,22.70
2022-12-19T14:10:02.909Z,25.33
2022-12-19T14:14:00.950Z,31.05
2022-12-19T14:18:42.309Z,23.85
2022-12-19T14:22:41.148Z,24.42
2022-12-19T14:28:18.146Z,27.65
2022-12-19T14:31:13.433Z,23.08
2022-12-19T14:36:07.474Z,22.45
2022-12-19T14:39:41.158Z,23.42
2022-12-19T14:52:50.944Z,27.40
2022-12-19T14:53:51.244Z,26.50
2022-12-19T14:54:42.090Z,24.98
2022-12-19T14:58:54.817Z,24.60
2022-12-19T15:06:31.497Z,23.67
2022-12-19T15:11:08.385Z,21.92
2022-12-19T15:15:04.899Z,20.58
2022-12-19T15:19:14.387Z,21.92
2022-12-19T15:23:22.825Z,25.10
2022-12-19T15:27:27.046Z,23.02
2022-12-19T15:31:34.904Z,21.80
2022-12-19T15:35:39.565Z,29.83
2022-12-19T15:39:43.089Z,23.40
2022-12-19T15:48:10.464Z,21.92
2022-12-19T15:56:29.629Z,30.70
2022-12-19T16:00:35.471Z,30.40
2022-12-19T16:04:38.915Z,21.55
2022-12-19T16:08:44.802Z,21.88
2022-12-19T16:12:51.544Z,21.23
2022-12-19T16:16:56.508Z,20.13
2022-12-19T16:21:04.617Z,19.52
2022-12-19T16:25:11.175Z,20.77
2022-12-19T16:29:19.840Z,20.05
2022-12-19T16:33:24.510Z,20.40
2022-12-19T16:37:32.425Z,18.73
2022-12-19T16:41:41.895Z,19.67
2022-12-19T16:45:48.224Z,19.23
2022-12-19T16:49:51.945Z,19.05
2022-12-19T16:53:56.694Z,17.95
2022-12-19T16:58:03.948Z,18.63
2022-12-19T17:02:23.772Z,20.42
2022-12-19T17:06:28.749Z,19.30
2022-12-19T17:10:34.450Z,18.92
2022-12-19T17:14:39.812Z,20.83
2022-12-19T17:18:44.645Z,17.92
2022-12-19T17:22:50.746Z,17.50
2022-12-19T17:26:54.240Z,17.15
2022-12-19T17:31:00.941Z,18.52
2022-12-19T17:35:05.023Z,17.52
2022-12-19T17:39:19.378Z,19.90
2022-12-19T17:43:23.434Z,17.95
2022-12-19T17:47:30.457Z,35.00
2022-12-19T17:51:34.264Z,20.25
2022-12-19T17:55:38.259Z,22.05
2022-12-19T17:59:42.476Z,21.38
2022-12-19T18:03:48.768Z,21.70
2022-12-19T18:07:53.577Z,20.98
2022-12-19T18:11:57.399Z,20.40
2022-12-19T18:16:02.755Z,22.05
2022-12-19T18:20:18.213Z,25.30
2022-12-19T18:24:22.485Z,19.52
2022-12-19T18:28:28.267Z,22.23
2022-12-19T18:32:35.798Z,21.20
2022-12-19T18:36:45.890Z,21.48
2022-12-19T18:40:50.677Z,22.67
2022-12-19T18:44:55.573Z,22.45
2022-12-19T18:49:00.200Z,21.38
2022-12-19T18:57:11.482Z,19.67
2022-12-19T19:01:20.667Z,32.10
2022-12-19T19:05:25.684Z,24.17
2022-12-19T19:09:31.119Z,26.20
2022-12-19T19:13:35.355Z,28.48
2022-12-19T19:17:39.393Z,23.77
2022-12-19T19:21:43.911Z,25.83
2022-12-19T19:25:49.218Z,24.98
2022-12-19T19:29:52.730Z,25.17
2022-12-19T19:33:59.218Z,23.50
2022-12-19T19:38:06.863Z,24.63
2022-12-19T19:42:12.128Z,32.65
2022-12-19T19:46:16.073Z,33.42
2022-12-19T19:50:19.846Z,25.20
2022-12-19T19:54:23.840Z,25.55
2022-12-19T19:58:29.193Z,22.45
2022-12-19T20:02:33.514Z,24.08
2022-12-19T20:06:37.689Z,23.20
2022-12-19T20:10:41.546Z,23.88
2022-12-19T20:14:46.989Z,23.80
2022-12-19T20:18:52.441Z,24.98
2022-12-19T20:22:56.726Z,34.88
2022-12-19T20:27:01.116Z,28.75
2022-12-19T20:31:06.622Z,52.42
2022-12-19T20:35:14.544Z,33.58
2022-12-19T20:39:22.440Z,37.97
2022-12-19T20:43:26.231Z,26.83
2022-12-19T20:47:31.551Z,28.08
2022-12-19T20:51:35.320Z,30.88
2022-12-19T20:55:41.272Z,31.15
2022-12-19T20:59:45.435Z,42.22
2022-12-19T21:03:50.769Z,26.10
2022-12-19T21:07:55.144Z,42.03
2022-12-19T21:11:59.461Z,30.77
2022-12-19T21:16:07.354Z,41.65
2022-12-19T21:20:14.049Z,46.33
2022-12-19T21:24:17.932Z,41.85
2022-12-19T21:28:21.746Z,32.22
2022-12-19T21:32:25.574Z,39.25
2022-12-19T21:36:31.721Z,30.52
2022-12-19T21:40:37.326Z,28.20
2022-12-19T21:44:41.254Z,34.80
2022-12-19T21:48:46.661Z,30.63
2022-12-19T21:52:55.815Z,34.58
2022-12-19T21:56:59.713Z,37.30
2022-12-19T22:01:11.347Z,33.35
2022-12-19T22:05:15.390Z,36.65
2022-12-19T22:09:22.484Z,26.48
2022-12-19T22:13:26.077Z,37.08
2022-12-19T22:17:29.769Z,34.03
2022-12-19T22:21:34.414Z,35.00
2022-12-19T22:25:39.711Z,35.92
2022-12-19T22:29:43.482Z,27.60
2022-12-19T22:33:49.222Z,37.42
2022-12-19T22:37:52.859Z,41.65
2022-12-19T22:41:58.450Z,36.80
2022-12-19T22:46:02.132Z,30.02
2022-12-19T22:50:08.560Z,36.58
2022-12-19T22:54:13.109Z,35.25
2022-12-19T22:58:18.494Z,32.08
2022-12-19T23:02:22.250Z,41.75
2022-12-19T23:06:28.936Z,37.30
2022-12-19T23:10:32.901Z,42.40
2022-12-19T23:14:38.491Z,41.47
2022-12-19T23:18:42.429Z,32.13
2022-12-19T23:22:46.333Z,28.33
2022-12-19T23:26:50.102Z,24.75
2022-12-19T23:31:04.521Z,28.52
2022-12-19T23:35:08.383Z,26.38
2022-12-19T23:39:12.281Z,35.13
2022-12-19T23:43:16.100Z,24.77
2022-12-19T23:47:21.428Z,24.63
2022-12-19T23:51:27.193Z,24.67
2022-12-19T23:55:30.606Z,32.13
2022-12-19T23:59:34.262Z,25.90
